Time;durP1;ratioP1;P1;durP2;ratioP2;P2;SDS_P1;SDS_P2;PMS_P1;PMS_P2;Temp;Humidity;BMP_temperature;BMP_pressure;BME280_temperature;BME280_humidity;BME280_pressure;Samples;Min_cycle;Max_cycle;Signal;HPM_P1;HPM_P2
2023/06/11 00:00:20;;;;;;;6.10;5.55;;;;;;;;;;5121094;28;20214;-62
2023/06/11 00:02:53;;;;;;;6.00;5.50;;;;;;;;;;5120643;28;20662;-62
2023/06/11 00:05:21;;;;;;;6.43;5.80;;;;;;;;;;5121033;28;20227;-62
2023/06/11 00:07:49;;;;;;;6.38;5.80;;;;;;;;;;5121016;28;20211;-61
2023/06/11 00:10:17;;;;;;;6.30;5.80;;;;;;;;;;5120706;28;20583;-62
2023/06/11 00:12:45;;;;;;;6.18;5.68;;;;;;;;;;5120848;28;20203;-62
2023/06/11 00:15:14;;;;;;;6.65;6.13;;;;;;;;;;5120965;28;20207;-62
2023/06/11 00:17:41;;;;;;;6.47;5.85;;;;;;;;;;5121096;28;20214;-62
2023/06/11 00:20:12;;;;;;;6.20;5.70;;;;;;;;;;5120487;28;20203;-62
2023/06/11 00:22:40;;;;;;;6.43;6.03;;;;;;;;;;5120802;28;20203;-62
2023/06/11 00:25:08;;;;;;;6.65;5.70;;;;;;;;;;5120351;28;20283;-61
2023/06/11 00:27:37;;;;;;;6.28;5.78;;;;;;;;;;5121061;28;20282;-62
2023/06/11 00:30:06;;;;;;;6.20;5.63;;;;;;;;;;5120836;28;20203;-62
2023/06/11 00:32:35;;;;;;;6.30;5.80;;;;;;;;;;5121026;28;20199;-61
2023/06/11 00:35:06;;;;;;;5.97;5.47;;;;;;;;;;5121296;28;20559;-61
2023/06/11 00:37:34;;;;;;;6.05;5.65;;;;;;;;;;5120934;28;20213;-62
2023/06/11 00:40:02;;;;;;;5.32;5.03;;;;;;;;;;5120441;28;20275;-62
2023/06/11 00:42:30;;;;;;;5.72;5.28;;;;;;;;;;5120443;28;20203;-62
2023/06/11 00:44:57;;;;;;;5.35;5.05;;;;;;;;;;5119525;28;20225;-62
2023/06/11 00:47:25;;;;;;;5.55;5.25;;;;;;;;;;5119428;27;20207;-61
2023/06/11 00:49:54;;;;;;;5.38;4.97;;;;;;;;;;5120172;28;20227;-62
2023/06/11 00:52:22;;;;;;;5.20;4.70;;;;;;;;;;5120403;28;20263;-62
2023/06/11 00:54:49;;;;;;;5.28;4.88;;;;;;;;;;5119867;28;20276;-62
2023/06/11 00:57:22;;;;;;;5.30;4.90;;;;;;;;;;5119835;28;20234;-62
2023/06/11 00:59:50;;;;;;;5.50;5.00;;;;;;;;;;5120311;28;20229;-62
2023/06/11 01:02:21;;;;;;;5.47;5.00;;;;;;;;;;5120383;28;20263;-62
2023/06/11 01:04:53;;;;;;;5.45;5.05;;;;;;;;;;5120366;27;20756;-61
2023/06/11 01:07:22;;;;;;;5.20;4.80;;;;;;;;;;5120331;28;20238;-62
2023/06/11 01:09:50;;;;;;;5.00;4.70;;;;;;;;;;5120170;28;20736;-64
2023/06/11 01:12:18;;;;;;;5.45;5.05;;;;;;;;;;5119942;28;20222;-61
2023/06/11 01:14:46;;;;;;;5.80;5.40;;;;;;;;;;5119672;28;20227;-61
2023/06/11 01:17:17;;;;;;;6.13;5.50;;;;;;;;;;5119992;28;20261;-61
2023/06/11 01:19:58;;;;;;;5.72;5.25;;;;;;;;;;5119889;28;20230;-62
2023/06/11 01:22:30;;;;;;;5.30;4.90;;;;;;;;;;5119849;28;20668;-61
2023/06/11 01:25:07;;;;;;;6.30;4.80;;;;;;;;;;5119527;28;20321;-61
2023/06/11 01:27:42;;;;;;;5.20;4.90;;;;;;;;;;5119568;28;20203;-62
2023/06/11 01:30:17;;;;;;;5.10;4.80;;;;;;;;;;5119965;28;20574;-61
2023/06/11 01:32:45;;;;;;;5.00;4.70;;;;;;;;;;5119404;28;20621;-62
2023/06/11 01:35:13;;;;;;;5.68;5.20;;;;;;;;;;5119423;28;20207;-62
2023/06/11 01:37:45;;;;;;;5.30;4.90;;;;;;;;;;5119269;28;20202;-61
2023/06/11 01:40:14;;;;;;;6.15;5.28;;;;;;;;;;5118711;28;20255;-61
2023/06/11 01:42:41;;;;;;;5.57;5.20;;;;;;;;;;5119166;28;20267;-61
2023/06/11 01:45:11;;;;;;;5.55;5.10;;;;;;;;;;5119069;28;20283;-61
2023/06/11 01:47:38;;;;;;;5.07;4.68;;;;;;;;;;5119120;28;20263;-62
2023/06/11 01:50:07;;;;;;;5.20;4.72;;;;;;;;;;5119199;28;20210;-61
2023/06/11 01:52:35;;;;;;;5.18;4.78;;;;;;;;;;5119042;28;20294;-61
2023/06/11 01:55:03;;;;;;;4.70;4.40;;;;;;;;;;5119499;28;20555;-62
2023/06/11 01:57:32;;;;;;;4.97;4.40;;;;;;;;;;5119143;27;20301;-62
2023/06/11 02:00:00;;;;;;;5.38;4.97;;;;;;;;;;5118719;28;20203;-61
2023/06/11 02:02:31;;;;;;;4.90;4.60;;;;;;;;;;5118817;28;20647;-62
2023/06/11 02:04:59;;;;;;;5.43;5.05;;;;;;;;;;5118875;28;20460;-61
2023/06/11 02:07:27;;;;;;;5.03;4.72;;;;;;;;;;5118895;27;20211;-61
2023/06/11 02:09:54;;;;;;;5.43;5.07;;;;;;;;;;5118793;28;20224;-62
2023/06/11 02:12:22;;;;;;;5.40;5.00;;;;;;;;;;5118542;28;20203;-62
2023/06/11 02:14:49;;;;;;;5.93;5.43;;;;;;;;;;5118938;28;20235;-61
2023/06/11 02:17:16;;;;;;;5.93;5.43;;;;;;;;;;5117959;28;20199;-61
2023/06/11 02:19:47;;;;;;;5.45;5.15;;;;;;;;;;5118285;28;20301;-61
2023/06/11 02:22:14;;;;;;;4.70;4.40;;;;;;;;;;5118324;28;20202;-61
2023/06/11 02:24:42;;;;;;;5.00;4.60;;;;;;;;;;5118437;27;20675;-61
2023/06/11 02:27:09;;;;;;;4.95;4.65;;;;;;;;;;5118655;28;20823;-61
2023/06/11 02:29:37;;;;;;;4.95;4.55;;;;;;;;;;5118322;28;20268;-61
2023/06/11 02:32:05;;;;;;;5.05;4.55;;;;;;;;;;5118559;28;20476;-61
2023/06/11 02:34:32;;;;;;;5.10;4.70;;;;;;;;;;5118661;28;20239;-61
2023/06/11 02:37:01;;;;;;;5.28;4.90;;;;;;;;;;5118520;28;20632;-61
2023/06/11 02:39:29;;;;;;;4.82;4.53;;;;;;;;;;5117974;28;20207;-61
2023/06/11 02:41:57;;;;;;;4.70;4.40;;;;;;;;;;5118276;28;20252;-61
2023/06/11 02:44:24;;;;;;;5.03;4.63;;;;;;;;;;5118591;28;20285;-61
2023/06/11 02:46:52;;;;;;;6.03;4.78;;;;;;;;;;5118088;28;20295;-61
2023/06/11 02:49:19;;;;;;;4.80;4.50;;;;;;;;;;5118023;28;20231;-62
2023/06/11 02:51:47;;;;;;;5.50;4.88;;;;;;;;;;5118351;27;20214;-61
2023/06/11 02:54:16;;;;;;;5.18;4.68;;;;;;;;;;5117875;28;20207;-61
2023/06/11 02:56:43;;;;;;;5.55;5.15;;;;;;;;;;5118531;28;20205;-60
2023/06/11 02:59:11;;;;;;;4.97;4.57;;;;;;;;;;5118329;28;20206;-62
2023/06/11 03:01:39;;;;;;;5.40;4.90;;;;;;;;;;5118349;28;20264;-62
2023/06/11 03:04:06;;;;;;;5.38;4.88;;;;;;;;;;5118291;28;20720;-61
2023/06/11 03:06:34;;;;;;;5.22;4.93;;;;;;;;;;5117696;28;20263;-61
2023/06/11 03:09:02;;;;;;;4.90;4.60;;;;;;;;;;5118006;28;20264;-61
2023/06/11 03:11:30;;;;;;;4.75;4.45;;;;;;;;;;5117296;28;20654;-61
2023/06/11 03:13:58;;;;;;;4.80;4.50;;;;;;;;;;5118058;28;20234;-61
2023/06/11 03:16:26;;;;;;;5.05;4.65;;;;;;;;;;5117822;28;20260;-61
2023/06/11 03:18:54;;;;;;;4.70;4.40;;;;;;;;;;5118123;28;20301;-61
2023/06/11 03:21:22;;;;;;;5.13;4.70;;;;;;;;;;5117939;28;20207;-61
2023/06/11 03:23:49;;;;;;;5.60;5.20;;;;;;;;;;5117999;28;20230;-62
2023/06/11 03:26:17;;;;;;;6.07;5.55;;;;;;;;;;5118221;28;20602;-61
2023/06/11 03:28:46;;;;;;;5.78;5.38;;;;;;;;;;5117936;28;20586;-61
2023/06/11 03:31:13;;;;;;;5.70;5.30;;;;;;;;;;5117634;28;20203;-62
2023/06/11 03:33:41;;;;;;;6.10;5.65;;;;;;;;;;5117885;28;20203;-62
2023/06/11 03:36:08;;;;;;;6.20;5.78;;;;;;;;;;5118081;28;20252;-61
2023/06/11 03:38:36;;;;;;;6.43;5.93;;;;;;;;;;5117659;28;20536;-61
2023/06/11 03:41:04;;;;;;;6.38;5.80;;;;;;;;;;5117549;28;20754;-61
2023/06/11 03:43:31;;;;;;;5.30;4.95;;;;;;;;;;5117468;28;20601;-61
2023/06/11 03:46:00;;;;;;;6.20;5.80;;;;;;;;;;5117332;28;20239;-62
2023/06/11 03:48:27;;;;;;;6.15;5.75;;;;;;;;;;5117826;28;20567;-61
2023/06/11 03:50:55;;;;;;;5.97;5.53;;;;;;;;;;5117351;28;20238;-61
2023/06/11 03:53:22;;;;;;;6.50;6.00;;;;;;;;;;5117772;28;20210;-61
2023/06/11 03:55:50;;;;;;;6.10;5.70;;;;;;;;;;5117477;28;20222;-62
2023/06/11 03:58:18;;;;;;;5.93;5.45;;;;;;;;;;5117363;28;20298;-61
2023/06/11 04:00:45;;;;;;;5.97;5.57;;;;;;;;;;5117652;28;20294;-61
2023/06/11 04:03:14;;;;;;;6.25;5.65;;;;;;;;;;5117559;28;20213;-62
2023/06/11 04:05:41;;;;;;;6.38;5.70;;;;;;;;;;5117217;28;20202;-61
2023/06/11 04:08:08;;;;;;;6.05;5.55;;;;;;;;;;5117672;28;20203;-62
2023/06/11 04:10:36;;;;;;;6.15;5.70;;;;;;;;;;5117684;28;20210;-62
2023/06/11 04:13:03;;;;;;;6.40;6.00;;;;;;;;;;5117746;28;20230;-61
2023/06/11 04:15:30;;;;;;;6.32;5.78;;;;;;;;;;5117534;28;20203;-61
2023/06/11 04:17:57;;;;;;;6.60;6.20;;;;;;;;;;5117570;28;20203;-62
2023/06/11 04:20:26;;;;;;;7.07;6.45;;;;;;;;;;5116785;28;20215;-61
2023/06/11 04:22:55;;;;;;;6.82;6.38;;;;;;;;;;5117744;28;20554;-61
2023/06/11 04:25:22;;;;;;;6.30;5.90;;;;;;;;;;5120610;28;20249;-62
2023/06/11 04:27:50;;;;;;;6.32;5.85;;;;;;;;;;5120572;28;20260;-62
2023/06/11 04:30:18;;;;;;;6.28;5.88;;;;;;;;;;5121057;28;20203;-62
2023/06/11 04:32:46;;;;;;;6.45;6.05;;;;;;;;;;5120924;28;20302;-62
2023/06/11 04:35:16;;;;;;;6.28;5.78;;;;;;;;;;5120662;28;20246;-62
2023/06/11 04:37:45;;;;;;;6.90;6.40;;;;;;;;;;5120834;28;20518;-62
2023/06/11 04:40:13;;;;;;;6.65;6.25;;;;;;;;;;5120625;28;20207;-62
2023/06/11 04:42:41;;;;;;;6.00;5.60;;;;;;;;;;5120350;28;20731;-62
2023/06/11 04:45:09;;;;;;;6.35;5.85;;;;;;;;;;5120370;28;20579;-62
2023/06/11 04:47:37;;;;;;;6.20;5.80;;;;;;;;;;5120379;28;20594;-62
2023/06/11 04:50:06;;;;;;;6.47;5.97;;;;;;;;;;5120436;28;20211;-62
2023/06/11 04:52:37;;;;;;;6.53;6.03;;;;;;;;;;5120559;28;20844;-62
2023/06/11 04:55:09;;;;;;;7.40;6.70;;;;;;;;;;5120314;28;20684;-62
2023/06/11 04:57:38;;;;;;;6.20;5.80;;;;;;;;;;5120036;28;20750;-62
2023/06/11 05:00:08;;;;;;;6.43;5.95;;;;;;;;;;5120137;28;20206;-62
2023/06/11 05:02:37;;;;;;;6.18;5.78;;;;;;;;;;5120486;28;20203;-62
2023/06/11 05:05:05;;;;;;;6.50;5.93;;;;;;;;;;5119805;28;20211;-62
2023/06/11 05:07:32;;;;;;;6.50;6.10;;;;;;;;;;5120034;28;20223;-62
2023/06/11 05:10:00;;;;;;;6.10;5.60;;;;;;;;;;5120307;28;20210;-62
2023/06/11 05:12:28;;;;;;;6.10;5.70;;;;;;;;;;5120061;28;20203;-62
2023/06/11 05:14:56;;;;;;;6.00;5.60;;;;;;;;;;5120263;28;20207;-61
2023/06/11 05:17:24;;;;;;;6.07;5.68;;;;;;;;;;5120008;28;20199;-61
2023/06/11 05:19:51;;;;;;;6.35;5.95;;;;;;;;;;5119808;28;20473;-61
2023/06/11 05:22:19;;;;;;;6.10;5.70;;;;;;;;;;5119928;28;20271;-61
2023/06/11 05:24:47;;;;;;;6.45;6.05;;;;;;;;;;5120294;28;20583;-62
2023/06/11 05:27:14;;;;;;;6.57;6.07;;;;;;;;;;5119635;28;20227;-61
2023/06/11 05:29:43;;;;;;;6.60;5.95;;;;;;;;;;5119807;28;20222;-61
2023/06/11 05:32:11;;;;;;;6.05;5.65;;;;;;;;;;5119994;28;20563;-61
2023/06/11 05:34:39;;;;;;;6.30;5.80;;;;;;;;;;5119062;28;20254;-61
2023/06/11 05:37:07;;;;;;;6.25;5.85;;;;;;;;;;5120089;28;20214;-61
2023/06/11 05:39:34;;;;;;;6.55;6.05;;;;;;;;;;5119520;28;20245;-61
2023/06/11 05:42:01;;;;;;;6.10;5.70;;;;;;;;;;5118928;28;20210;-62
2023/06/11 05:44:29;;;;;;;6.70;6.20;;;;;;;;;;5119141;28;20579;-61
2023/06/11 05:46:58;;;;;;;6.45;5.95;;;;;;;;;;5119057;28;20234;-61
2023/06/11 05:49:25;;;;;;;6.18;5.78;;;;;;;;;;5119322;28;20268;-61
2023/06/11 05:51:52;;;;;;;6.30;5.90;;;;;;;;;;5119723;28;20210;-61
2023/06/11 05:54:20;;;;;;;6.60;6.20;;;;;;;;;;5119013;28;20211;-62
2023/06/11 05:56:47;;;;;;;6.53;6.13;;;;;;;;;;5119046;28;20199;-63
2023/06/11 05:59:15;;;;;;;6.30;5.80;;;;;;;;;;5118927;28;20203;-61
2023/06/11 06:01:45;;;;;;;6.50;6.00;;;;;;;;;;5118807;27;20210;-62
2023/06/11 06:04:15;;;;;;;6.97;6.57;;;;;;;;;;5119143;28;20267;-61
2023/06/11 06:06:43;;;;;;;6.65;6.15;;;;;;;;;;5119038;28;20229;-61
2023/06/11 06:09:10;;;;;;;7.18;6.60;;;;;;;;;;5118724;28;20238;-61
2023/06/11 06:11:38;;;;;;;6.90;6.47;;;;;;;;;;5118638;28;20609;-61
2023/06/11 06:14:05;;;;;;;6.68;6.28;;;;;;;;;;5118169;28;20202;-61
2023/06/11 06:16:32;;;;;;;7.20;6.70;;;;;;;;;;5118623;28;20579;-61
2023/06/11 06:19:00;;;;;;;7.18;6.68;;;;;;;;;;5118096;28;20489;-61
2023/06/11 06:21:28;;;;;;;7.40;6.90;;;;;;;;;;5118110;28;20497;-62
2023/06/11 06:23:55;;;;;;;7.70;7.20;;;;;;;;;;5118237;28;20210;-61
2023/06/11 06:26:24;;;;;;;8.80;8.10;;;;;;;;;;5118081;28;20195;-62
2023/06/11 06:28:53;;;;;;;8.20;7.60;;;;;;;;;;5118641;28;20224;-62
2023/06/11 06:31:20;;;;;;;8.48;7.90;;;;;;;;;;5118600;28;20203;-62
2023/06/11 06:33:48;;;;;;;7.90;7.30;;;;;;;;;;5118331;28;20206;-61
2023/06/11 06:36:15;;;;;;;8.75;8.05;;;;;;;;;;5118555;28;20203;-61
2023/06/11 06:38:44;;;;;;;8.75;8.15;;;;;;;;;;5118064;28;20526;-61
2023/06/11 06:41:12;;;;;;;8.32;7.63;;;;;;;;;;5118274;28;20213;-61
2023/06/11 06:43:39;;;;;;;8.73;8.13;;;;;;;;;;5118086;28;20579;-61
2023/06/11 06:46:08;;;;;;;8.73;8.13;;;;;;;;;;5117091;28;20231;-61
2023/06/11 06:48:35;;;;;;;8.77;8.13;;;;;;;;;;5117697;28;20237;-61
2023/06/11 06:51:02;;;;;;;10.27;9.48;;;;;;;;;;5118281;28;20211;-61
2023/06/11 06:53:30;;;;;;;8.48;7.88;;;;;;;;;;5118022;28;20215;-61
2023/06/11 06:56:00;;;;;;;8.63;8.00;;;;;;;;;;5117732;28;20213;-61
2023/06/11 06:58:28;;;;;;;8.80;8.10;;;;;;;;;;5118160;28;20211;-61
2023/06/11 07:00:55;;;;;;;8.90;8.20;;;;;;;;;;5117793;28;20207;-62
2023/06/11 07:03:22;;;;;;;8.55;7.95;;;;;;;;;;5117850;28;20202;-62
2023/06/11 07:05:50;;;;;;;8.93;8.32;;;;;;;;;;5117870;28;20586;-62
2023/06/11 07:08:17;;;;;;;9.10;8.43;;;;;;;;;;5117624;28;20227;-62
2023/06/11 07:10:49;;;;;;;9.43;8.57;;;;;;;;;;5117498;28;20210;-62
2023/06/11 07:13:20;;;;;;;9.25;8.55;;;;;;;;;;5117585;28;20299;-62
2023/06/11 07:15:47;;;;;;;8.98;8.27;;;;;;;;;;5118219;28;20225;-62
2023/06/11 07:18:15;;;;;;;8.82;8.23;;;;;;;;;;5117737;28;20203;-62
2023/06/11 07:20:42;;;;;;;9.50;8.70;;;;;;;;;;5117055;28;20218;-62
2023/06/11 07:23:10;;;;;;;9.43;8.63;;;;;;;;;;5116938;28;20203;-62
2023/06/11 07:25:38;;;;;;;9.40;8.70;;;;;;;;;;5116807;28;20202;-63
2023/06/11 07:28:06;;;;;;;8.95;8.35;;;;;;;;;;5117423;28;20618;-62
2023/06/11 07:30:35;;;;;;;9.82;8.98;;;;;;;;;;5117672;28;20203;-62
2023/06/11 07:33:02;;;;;;;8.82;8.23;;;;;;;;;;5117325;28;20199;-62
2023/06/11 07:35:30;;;;;;;10.30;9.52;;;;;;;;;;5116964;28;20487;-62
2023/06/11 07:37:57;;;;;;;9.13;8.50;;;;;;;;;;5117509;28;20230;-62
2023/06/11 07:40:25;;;;;;;9.55;8.85;;;;;;;;;;5116897;28;20209;-62
2023/06/11 07:42:52;;;;;;;9.07;8.45;;;;;;;;;;5117011;28;20202;-62
2023/06/11 07:45:20;;;;;;;8.90;8.20;;;;;;;;;;5116666;28;20239;-62
2023/06/11 07:47:48;;;;;;;9.02;8.43;;;;;;;;;;5117358;28;20330;-62
2023/06/11 07:50:16;;;;;;;9.13;8.50;;;;;;;;;;5117219;28;20210;-62
2023/06/11 07:52:43;;;;;;;7.93;7.38;;;;;;;;;;5117114;28;20207;-62
2023/06/11 07:55:11;;;;;;;8.90;8.20;;;;;;;;;;5116892;28;20218;-62
2023/06/11 07:57:38;;;;;;;8.07;7.47;;;;;;;;;;5118544;28;20195;-62
2023/06/11 08:00:10;;;;;;;7.80;7.10;;;;;;;;;;5121332;28;20252;-62
2023/06/11 08:02:37;;;;;;;7.03;6.53;;;;;;;;;;5120039;28;20215;-62
2023/06/11 08:05:07;;;;;;;7.50;6.90;;;;;;;;;;5120038;28;20209;-62
2023/06/11 08:07:34;;;;;;;7.75;7.15;;;;;;;;;;5120469;28;20238;-62
2023/06/11 08:10:01;;;;;;;7.15;6.60;;;;;;;;;;5120649;28;20202;-62
2023/06/11 08:12:29;;;;;;;7.00;6.40;;;;;;;;;;5120541;28;20211;-62
2023/06/11 08:14:56;;;;;;;6.63;6.10;;;;;;;;;;5120094;28;20214;-62
2023/06/11 08:17:23;;;;;;;6.72;6.20;;;;;;;;;;5120448;28;20199;-62
2023/06/11 08:19:51;;;;;;;6.90;6.35;;;;;;;;;;5120147;28;20203;-62
2023/06/11 08:22:20;;;;;;;6.80;6.28;;;;;;;;;;5120368;28;20203;-62
2023/06/11 08:24:47;;;;;;;6.53;5.97;;;;;;;;;;5120037;28;20286;-62
2023/06/11 08:27:15;;;;;;;6.50;6.00;;;;;;;;;;5119778;28;20254;-62
2023/06/11 08:29:42;;;;;;;7.07;6.47;;;;;;;;;;5119674;28;20617;-62
2023/06/11 08:32:09;;;;;;;6.63;6.03;;;;;;;;;;5119972;28;20210;-62
2023/06/11 08:34:37;;;;;;;6.40;5.80;;;;;;;;;;5119749;28;20203;-62
2023/06/11 08:37:04;;;;;;;6.60;6.03;;;;;;;;;;5119765;28;20202;-62
2023/06/11 08:39:33;;;;;;;6.72;5.60;;;;;;;;;;5119537;28;20203;-62
2023/06/11 08:42:01;;;;;;;5.93;5.53;;;;;;;;;;5119061;28;20204;-62
2023/06/11 08:44:28;;;;;;;6.57;5.97;;;;;;;;;;5119384;28;20214;-62
2023/06/11 08:46:57;;;;;;;6.30;5.80;;;;;;;;;;5119150;28;20576;-62
2023/06/11 08:49:24;;;;;;;6.07;5.47;;;;;;;;;;5119676;28;20203;-62
2023/06/11 08:51:51;;;;;;;6.03;5.53;;;;;;;;;;5119734;28;20226;-62
2023/06/11 08:54:20;;;;;;;5.68;5.18;;;;;;;;;;5119581;28;20214;-62
2023/06/11 08:56:48;;;;;;;5.30;4.85;;;;;;;;;;5119178;28;20470;-62
2023/06/11 08:59:16;;;;;;;5.07;4.65;;;;;;;;;;5119427;28;20199;-62
2023/06/11 09:01:50;;;;;;;5.07;4.68;;;;;;;;;;5119475;28;20242;-62
2023/06/11 09:04:17;;;;;;;5.15;4.70;;;;;;;;;;5119391;28;20258;-62
2023/06/11 09:06:50;;;;;;;5.18;4.78;;;;;;;;;;5118722;28;20203;-62
2023/06/11 09:09:19;;;;;;;4.90;4.50;;;;;;;;;;5118197;28;20222;-62
2023/06/11 09:11:47;;;;;;;5.55;4.93;;;;;;;;;;5118957;28;20210;-62
2023/06/11 09:14:15;;;;;;;4.82;4.32;;;;;;;;;;5118705;28;20289;-62
2023/06/11 09:16:44;;;;;;;5.75;5.25;;;;;;;;;;5119346;28;20207;-62
2023/06/11 09:19:12;;;;;;;5.50;5.10;;;;;;;;;;5118948;28;20198;-62
2023/06/11 09:21:40;;;;;;;5.30;4.90;;;;;;;;;;5118288;28;20275;-62
2023/06/11 09:24:08;;;;;;;5.32;4.90;;;;;;;;;;5118299;28;20234;-61
2023/06/11 09:26:35;;;;;;;5.28;4.78;;;;;;;;;;5118263;27;20230;-62
2023/06/11 09:29:02;;;;;;;5.72;5.22;;;;;;;;;;5117827;28;20230;-62
2023/06/11 09:31:31;;;;;;;5.40;4.90;;;;;;;;;;5118884;28;20470;-62
2023/06/11 09:34:03;;;;;;;5.63;5.13;;;;;;;;;;5118970;28;20323;-62
2023/06/11 09:36:32;;;;;;;5.25;4.85;;;;;;;;;;5118362;28;20237;-62
2023/06/11 09:38:59;;;;;;;5.30;4.90;;;;;;;;;;5118396;28;20199;-61
2023/06/11 09:41:27;;;;;;;5.50;5.05;;;;;;;;;;5118497;28;20564;-61
2023/06/11 09:43:54;;;;;;;5.72;5.22;;;;;;;;;;5118503;28;20203;-62
2023/06/11 09:46:22;;;;;;;5.93;5.35;;;;;;;;;;5118788;28;20234;-62
2023/06/11 09:48:51;;;;;;;5.32;4.85;;;;;;;;;;5117973;28;20286;-62
2023/06/11 09:51:23;;;;;;;5.60;5.10;;;;;;;;;;5117816;28;20210;-62
2023/06/11 09:53:52;;;;;;;5.85;5.35;;;;;;;;;;5117479;28;20277;-62
2023/06/11 09:56:19;;;;;;;6.47;5.18;;;;;;;;;;5117754;28;20252;-62
2023/06/11 09:58:49;;;;;;;6.03;5.30;;;;;;;;;;5117464;28;20311;-62
2023/06/11 10:01:17;;;;;;;7.10;5.45;;;;;;;;;;5117442;28;20199;-62
2023/06/11 10:03:45;;;;;;;5.97;5.38;;;;;;;;;;5117428;28;20195;-62
2023/06/11 10:06:16;;;;;;;5.57;5.05;;;;;;;;;;5117740;28;20207;-62
2023/06/11 10:08:45;;;;;;;5.25;4.85;;;;;;;;;;5117418;28;20286;-62
2023/06/11 10:11:12;;;;;;;5.15;4.55;;;;;;;;;;5117340;28;20606;-62
2023/06/11 10:13:40;;;;;;;5.38;4.97;;;;;;;;;;5118147;28;20203;-62
2023/06/11 10:16:09;;;;;;;5.38;4.80;;;;;;;;;;5117093;28;20487;-62
2023/06/11 10:18:37;;;;;;;5.32;4.80;;;;;;;;;;5118150;28;20593;-62
2023/06/11 10:21:05;;;;;;;5.03;4.63;;;;;;;;;;5117794;28;20203;-62
2023/06/11 10:23:37;;;;;;;5.22;4.72;;;;;;;;;;5117167;28;20541;-62
2023/06/11 10:26:04;;;;;;;5.30;4.85;;;;;;;;;;5117700;28;20226;-62
2023/06/11 10:28:38;;;;;;;4.97;4.57;;;;;;;;;;5117682;28;20230;-62
2023/06/11 10:31:06;;;;;;;5.22;4.72;;;;;;;;;;5117721;28;20210;-62
2023/06/11 10:33:37;;;;;;;5.28;4.78;;;;;;;;;;5117262;28;20210;-62
2023/06/11 10:36:05;;;;;;;5.43;4.95;;;;;;;;;;5117111;28;20206;-62
2023/06/11 10:38:32;;;;;;;5.53;5.05;;;;;;;;;;5117552;28;20210;-62
2023/06/11 10:41:04;;;;;;;5.40;4.90;;;;;;;;;;5117486;28;20228;-62
2023/06/11 10:43:32;;;;;;;5.63;5.10;;;;;;;;;;5117410;28;20495;-62
2023/06/11 10:46:03;;;;;;;5.15;4.75;;;;;;;;;;5117741;28;20266;-62
2023/06/11 10:48:30;;;;;;;5.25;4.85;;;;;;;;;;5117377;28;20228;-62
2023/06/11 10:51:03;;;;;;;5.28;4.60;;;;;;;;;;5117883;27;20195;-62
2023/06/11 10:53:40;;;;;;;5.78;5.10;;;;;;;;;;5116819;28;20215;-62
2023/06/11 10:56:09;;;;;;;5.45;4.93;;;;;;;;;;5116918;28;20202;-62
2023/06/11 10:58:37;;;;;;;5.90;4.88;;;;;;;;;;5116461;28;20214;-62
2023/06/11 11:01:06;;;;;;;5.80;5.30;;;;;;;;;;5117578;28;20226;-62
2023/06/11 11:03:35;;;;;;;5.38;4.85;;;;;;;;;;5116639;28;20244;-62
2023/06/11 11:06:03;;;;;;;5.68;5.13;;;;;;;;;;5117239;28;20727;-62
2023/06/11 11:08:30;;;;;;;5.65;5.15;;;;;;;;;;5117445;28;20237;-62
2023/06/11 11:10:59;;;;;;;5.90;5.40;;;;;;;;;;5116872;28;20203;-62
2023/06/11 11:13:29;;;;;;;5.50;5.07;;;;;;;;;;5116662;28;20215;-62
2023/06/11 11:15:58;;;;;;;5.97;5.43;;;;;;;;;;5116174;28;20579;-62
2023/06/11 11:18:25;;;;;;;5.43;5.03;;;;;;;;;;5115920;28;20199;-62
2023/06/11 11:20:54;;;;;;;5.57;5.18;;;;;;;;;;5116804;28;20210;-62
2023/06/11 11:23:22;;;;;;;5.65;5.25;;;;;;;;;;5116769;28;20302;-62
2023/06/11 11:25:49;;;;;;;6.00;5.50;;;;;;;;;;5116863;28;20563;-62
2023/06/11 11:28:18;;;;;;;6.22;5.72;;;;;;;;;;5117054;28;20534;-62
2023/06/11 11:30:47;;;;;;;5.95;5.45;;;;;;;;;;5116223;28;20203;-61
2023/06/11 11:33:14;;;;;;;6.38;5.75;;;;;;;;;;5118969;28;20210;-62
2023/06/11 11:35:53;;;;;;;6.18;5.68;;;;;;;;;;5120452;28;20203;-62
2023/06/11 11:38:20;;;;;;;6.40;5.80;;;;;;;;;;5119706;28;20367;-62
2023/06/11 11:40:54;;;;;;;6.07;5.68;;;;;;;;;;5120054;27;20793;-62
2023/06/11 11:43:21;;;;;;;6.28;5.78;;;;;;;;;;5120992;28;20202;-62
2023/06/11 11:45:50;;;;;;;6.18;5.78;;;;;;;;;;5119747;28;20227;-62
2023/06/11 11:48:18;;;;;;;6.82;6.22;;;;;;;;;;5119942;28;20223;-62
2023/06/11 11:50:50;;;;;;;6.18;5.78;;;;;;;;;;5120856;28;20219;-61
2023/06/11 11:53:18;;;;;;;6.82;6.32;;;;;;;;;;5120201;28;20203;-62
2023/06/11 11:55:46;;;;;;;7.28;6.70;;;;;;;;;;5120220;27;20214;-62
2023/06/11 11:58:14;;;;;;;6.95;6.35;;;;;;;;;;5119865;28;20211;-62
2023/06/11 12:00:47;;;;;;;7.68;7.00;;;;;;;;;;5120118;28;20264;-62
2023/06/11 12:03:16;;;;;;;7.30;6.68;;;;;;;;;;5119905;28;20667;-62
2023/06/11 12:05:43;;;;;;;7.05;6.55;;;;;;;;;;5120167;28;20594;-62
2023/06/11 12:08:11;;;;;;;6.90;6.30;;;;;;;;;;5119969;28;20210;-63
2023/06/11 12:10:38;;;;;;;6.70;6.10;;;;;;;;;;5119884;28;20482;-62
2023/06/11 12:13:07;;;;;;;6.90;6.40;;;;;;;;;;5119756;28;20231;-62
2023/06/11 12:15:34;;;;;;;6.95;6.43;;;;;;;;;;5119575;28;20211;-62
2023/06/11 12:18:01;;;;;;;6.82;6.30;;;;;;;;;;5119247;28;20203;-62
2023/06/11 12:20:31;;;;;;;6.18;5.75;;;;;;;;;;5118918;28;20210;-62
2023/06/11 12:22:58;;;;;;;6.70;6.20;;;;;;;;;;5118698;28;20206;-62
2023/06/11 12:25:26;;;;;;;6.95;6.43;;;;;;;;;;5118506;28;20202;-62
2023/06/11 12:27:54;;;;;;;6.50;6.00;;;;;;;;;;5118296;28;20583;-62
2023/06/11 12:30:21;;;;;;;6.78;6.28;;;;;;;;;;5118591;28;20284;-62
2023/06/11 12:32:49;;;;;;;6.65;6.10;;;;;;;;;;5119450;28;20210;-62
2023/06/11 12:35:17;;;;;;;6.68;6.18;;;;;;;;;;5118838;28;20203;-62
2023/06/11 12:37:46;;;;;;;6.55;5.97;;;;;;;;;;5119422;28;20210;-62
2023/06/11 12:40:14;;;;;;;6.22;5.75;;;;;;;;;;5118645;28;20506;-62
2023/06/11 12:42:41;;;;;;;6.55;6.03;;;;;;;;;;5118518;28;20586;-62
2023/06/11 12:45:09;;;;;;;7.20;6.60;;;;;;;;;;5117385;28;20211;-62
2023/06/11 12:47:36;;;;;;;6.43;5.82;;;;;;;;;;5119307;28;20617;-62
2023/06/11 12:50:04;;;;;;;6.90;6.30;;;;;;;;;;5118081;28;20231;-62
2023/06/11 12:52:31;;;;;;;6.38;5.82;;;;;;;;;;5117957;28;20210;-62
2023/06/11 12:55:00;;;;;;;5.95;5.55;;;;;;;;;;5117806;28;20210;-62
2023/06/11 12:57:27;;;;;;;6.43;5.95;;;;;;;;;;5118981;28;20203;-62
2023/06/11 12:59:54;;;;;;;6.28;5.78;;;;;;;;;;5119157;28;20207;-62
2023/06/11 13:02:22;;;;;;;5.63;5.22;;;;;;;;;;5119081;28;20214;-62
2023/06/11 13:04:49;;;;;;;6.55;6.05;;;;;;;;;;5119060;28;20217;-62
2023/06/11 13:07:17;;;;;;;6.13;5.63;;;;;;;;;;5118796;28;20210;-62
2023/06/11 13:09:44;;;;;;;6.22;5.82;;;;;;;;;;5118343;28;20230;-62
2023/06/11 13:12:13;;;;;;;6.47;6.07;;;;;;;;;;5118246;28;20203;-63
2023/06/11 13:14:40;;;;;;;6.22;5.75;;;;;;;;;;5118890;28;20203;-62
2023/06/11 13:17:08;;;;;;;6.75;6.18;;;;;;;;;;5107157;28;20219;-62
2023/06/11 13:19:35;;;;;;;6.80;6.20;;;;;;;;;;5098272;28;20204;-62
2023/06/11 13:22:04;;;;;;;6.68;6.18;;;;;;;;;;5098078;28;20212;-62
2023/06/11 13:24:31;;;;;;;6.45;5.95;;;;;;;;;;5097485;28;20708;-62
2023/06/11 13:26:59;;;;;;;6.30;5.80;;;;;;;;;;5097298;28;20196;-63
2023/06/11 13:29:28;;;;;;;6.53;6.03;;;;;;;;;;5098342;28;20231;-62
2023/06/11 13:31:56;;;;;;;6.45;5.90;;;;;;;;;;5097494;28;20207;-62
2023/06/11 13:34:23;;;;;;;7.15;6.35;;;;;;;;;;5115090;28;20203;-63
2023/06/11 13:36:55;;;;;;;7.22;6.63;;;;;;;;;;5118679;28;20214;-62
2023/06/11 13:39:23;;;;;;;7.20;6.50;;;;;;;;;;5118405;28;20628;-62
2023/06/11 13:41:50;;;;;;;7.55;6.93;;;;;;;;;;5114780;28;20206;-62
2023/06/11 13:44:18;;;;;;;6.88;6.22;;;;;;;;;;5117819;28;20214;-62
2023/06/11 13:46:47;;;;;;;7.05;6.43;;;;;;;;;;5117255;28;20246;-62
2023/06/11 13:49:15;;;;;;;7.35;6.35;;;;;;;;;;5117801;28;20223;-62
2023/06/11 13:51:42;;;;;;;6.57;6.07;;;;;;;;;;5118086;28;20598;-62
2023/06/11 13:54:09;;;;;;;6.25;5.75;;;;;;;;;;5117715;28;20211;-63
2023/06/11 13:56:36;;;;;;;7.07;6.47;;;;;;;;;;5116179;28;20206;-62
2023/06/11 13:59:04;;;;;;;6.75;6.15;;;;;;;;;;5116643;28;20590;-62
2023/06/11 14:01:31;;;;;;;6.30;5.80;;;;;;;;;;5117419;28;20587;-62
2023/06/11 14:04:00;;;;;;;6.20;5.70;;;;;;;;;;5117561;28;20194;-62
2023/06/11 14:06:27;;;;;;;6.30;5.80;;;;;;;;;;5117108;28;20203;-62
2023/06/11 14:08:55;;;;;;;7.47;5.85;;;;;;;;;;5117275;28;20211;-61
2023/06/11 14:11:23;;;;;;;6.60;6.10;;;;;;;;;;5117331;28;20201;-61
2023/06/11 14:13:50;;;;;;;6.13;5.63;;;;;;;;;;5116975;28;20203;-61
2023/06/11 14:16:17;;;;;;;6.97;6.32;;;;;;;;;;5116750;28;20537;-61
2023/06/11 14:18:45;;;;;;;6.90;6.20;;;;;;;;;;5117398;28;20215;-61
2023/06/11 14:21:13;;;;;;;7.82;6.18;;;;;;;;;;5117271;28;20601;-62
2023/06/11 14:23:41;;;;;;;6.68;6.10;;;;;;;;;;5117085;28;20202;-62
2023/06/11 14:26:08;;;;;;;6.68;6.07;;;;;;;;;;5117806;28;20203;-62
2023/06/11 14:28:36;;;;;;;6.28;5.88;;;;;;;;;;5117432;28;20207;-62
2023/06/11 14:31:04;;;;;;;6.65;5.88;;;;;;;;;;5117693;28;20283;-62
2023/06/11 14:33:32;;;;;;;6.65;6.15;;;;;;;;;;5117591;28;20590;-62
2023/06/11 14:36:04;;;;;;;6.60;5.97;;;;;;;;;;5117248;28;20209;-62
2023/06/11 14:38:42;;;;;;;6.95;6.43;;;;;;;;;;5117770;28;20302;-62
2023/06/11 14:41:09;;;;;;;6.38;5.88;;;;;;;;;;5116421;28;20191;-61
2023/06/11 14:43:36;;;;;;;6.20;5.75;;;;;;;;;;5116888;28;20599;-61
2023/06/11 14:46:04;;;;;;;6.93;6.32;;;;;;;;;;5116366;28;20250;-61
2023/06/11 14:48:31;;;;;;;6.13;5.72;;;;;;;;;;5116993;28;20317;-61